sensor_id;sensor_type;location;lat;lon;timestamp;P1;durP1;ratioP1;P2;durP2;ratioP2
32918;SDS011;19280;42.646;21.150;2023-07-24T00:02:15;24.75;;;13.10;;
32918;SDS011;19280;42.646;21.150;2023-07-24T00:04:41;28.88;;;14.35;;
32918;SDS011;19280;42.646;21.150;2023-07-24T00:07:08;21.13;;;13.20;;
32918;SDS011;19280;42.646;21.150;2023-07-24T00:09:34;33.35;;;16.60;;
32918;SDS011;19280;42.646;21.150;2023-07-24T00:12:00;23.52;;;13.13;;
32918;SDS011;19280;42.646;21.150;2023-07-24T00:14:26;18.40;;;11.10;;
32918;SDS011;19280;42.646;21.150;2023-07-24T00:16:52;15.48;;;11.18;;
32918;SDS011;19280;42.646;21.150;2023-07-24T00:19:18;18.45;;;10.68;;
32918;SDS011;19280;42.646;21.150;2023-07-24T00:21:44;18.85;;;11.25;;
32918;SDS011;19280;42.646;21.150;2023-07-24T00:24:10;16.35;;;11.60;;
32918;SDS011;19280;42.646;21.150;2023-07-24T00:26:36;19.70;;;12.18;;
32918;SDS011;19280;42.646;21.150;2023-07-24T00:29:02;17.30;;;10.90;;
32918;SDS011;19280;42.646;21.150;2023-07-24T00:31:28;20.38;;;12.73;;
32918;SDS011;19280;42.646;21.150;2023-07-24T00:33:54;17.80;;;11.32;;
32918;SDS011;19280;42.646;21.150;2023-07-24T00:36:20;20.60;;;10.85;;
32918;SDS011;19280;42.646;21.150;2023-07-24T00:38:46;20.27;;;10.35;;
32918;SDS011;19280;42.646;21.150;2023-07-24T00:41:12;16.67;;;11.18;;
32918;SDS011;19280;42.646;21.150;2023-07-24T00:43:38;15.02;;;9.95;;
32918;SDS011;19280;42.646;21.150;2023-07-24T00:46:04;17.92;;;11.35;;
32918;SDS011;19280;42.646;21.150;2023-07-24T00:48:30;15.00;;;10.25;;
32918;SDS011;19280;42.646;21.150;2023-07-24T00:50:56;17.20;;;11.27;;
32918;SDS011;19280;42.646;21.150;2023-07-24T00:53:22;18.55;;;11.55;;
32918;SDS011;19280;42.646;21.150;2023-07-24T00:55:49;16.40;;;11.48;;
32918;SDS011;19280;42.646;21.150;2023-07-24T00:58:15;16.00;;;11.20;;
32918;SDS011;19280;42.646;21.150;2023-07-24T01:00:43;18.65;;;11.65;;
32918;SDS011;19280;42.646;21.150;2023-07-24T01:03:09;22.17;;;12.43;;
32918;SDS011;19280;42.646;21.150;2023-07-24T01:05:37;26.13;;;14.10;;
32918;SDS011;19280;42.646;21.150;2023-07-24T01:08:04;29.42;;;14.73;;
32918;SDS011;19280;42.646;21.150;2023-07-24T01:10:30;26.20;;;14.45;;
32918;SDS011;19280;42.646;21.150;2023-07-24T01:13:02;31.75;;;16.23;;
32918;SDS011;19280;42.646;21.150;2023-07-24T01:17:57;30.27;;;15.50;;
32918;SDS011;19280;42.646;21.150;2023-07-24T01:20:23;21.27;;;13.75;;
32918;SDS011;19280;42.646;21.150;2023-07-24T01:27:46;27.33;;;13.70;;
32918;SDS011;19280;42.646;21.150;2023-07-24T01:30:13;20.30;;;13.30;;
32918;SDS011;19280;42.646;21.150;2023-07-24T01:32:39;19.63;;;11.98;;
32918;SDS011;19280;42.646;21.150;2023-07-24T01:35:05;18.08;;;11.82;;
32918;SDS011;19280;42.646;21.150;2023-07-24T01:37:32;17.98;;;11.65;;
32918;SDS011;19280;42.646;21.150;2023-07-24T01:40:00;20.20;;;11.70;;
32918;SDS011;19280;42.646;21.150;2023-07-24T01:42:26;17.40;;;11.25;;
32918;SDS011;19280;42.646;21.150;2023-07-24T01:44:53;17.77;;;11.55;;
32918;SDS011;19280;42.646;21.150;2023-07-24T01:47:19;18.73;;;11.90;;
32918;SDS011;19280;42.646;21.150;2023-07-24T01:49:45;17.48;;;11.25;;
32918;SDS011;19280;42.646;21.150;2023-07-24T01:52:11;20.90;;;11.57;;
32918;SDS011;19280;42.646;21.150;2023-07-24T01:54:37;20.67;;;11.80;;
32918;SDS011;19280;42.646;21.150;2023-07-24T01:57:04;18.17;;;11.70;;
32918;SDS011;19280;42.646;21.150;2023-07-24T01:59:30;20.35;;;12.35;;
32918;SDS011;19280;42.646;21.150;2023-07-24T02:01:56;18.70;;;11.68;;
32918;SDS011;19280;42.646;21.150;2023-07-24T02:04:22;17.38;;;11.55;;
32918;SDS011;19280;42.646;21.150;2023-07-24T02:06:48;17.90;;;11.43;;
32918;SDS011;19280;42.646;21.150;2023-07-24T02:09:15;15.63;;;11.20;;
32918;SDS011;19280;42.646;21.150;2023-07-24T02:11:41;19.70;;;11.55;;
32918;SDS011;19280;42.646;21.150;2023-07-24T02:14:07;15.77;;;10.65;;
32918;SDS011;19280;42.646;21.150;2023-07-24T02:16:33;15.77;;;10.93;;
32918;SDS011;19280;42.646;21.150;2023-07-24T02:18:59;19.48;;;11.20;;
32918;SDS011;19280;42.646;21.150;2023-07-24T02:21:25;19.65;;;11.98;;
32918;SDS011;19280;42.646;21.150;2023-07-24T02:23:51;20.30;;;11.38;;
32918;SDS011;19280;42.646;21.150;2023-07-24T02:26:17;20.13;;;11.75;;
32918;SDS011;19280;42.646;21.150;2023-07-24T02:28:43;16.40;;;10.05;;
32918;SDS011;19280;42.646;21.150;2023-07-24T02:31:09;15.98;;;10.90;;
32918;SDS011;19280;42.646;21.150;2023-07-24T02:33:35;20.08;;;10.82;;
32918;SDS011;19280;42.646;21.150;2023-07-24T02:36:01;17.10;;;10.98;;
32918;SDS011;19280;42.646;21.150;2023-07-24T02:38:27;18.20;;;11.00;;
32918;SDS011;19280;42.646;21.150;2023-07-24T02:40:53;17.83;;;11.32;;
32918;SDS011;19280;42.646;21.150;2023-07-24T02:43:19;18.02;;;10.98;;
32918;SDS011;19280;42.646;21.150;2023-07-24T02:45:45;18.55;;;12.00;;
32918;SDS011;19280;42.646;21.150;2023-07-24T02:48:11;19.58;;;10.80;;
32918;SDS011;19280;42.646;21.150;2023-07-24T02:50:37;18.38;;;11.10;;
32918;SDS011;19280;42.646;21.150;2023-07-24T02:53:03;17.70;;;11.32;;
32918;SDS011;19280;42.646;21.150;2023-07-24T02:55:30;18.48;;;11.40;;
32918;SDS011;19280;42.646;21.150;2023-07-24T02:57:56;18.42;;;10.05;;
32918;SDS011;19280;42.646;21.150;2023-07-24T03:00:22;21.20;;;11.30;;
32918;SDS011;19280;42.646;21.150;2023-07-24T03:02:48;16.92;;;10.18;;
32918;SDS011;19280;42.646;21.150;2023-07-24T03:05:14;17.38;;;10.50;;
32918;SDS011;19280;42.646;21.150;2023-07-24T03:07:40;18.17;;;10.68;;
32918;SDS011;19280;42.646;21.150;2023-07-24T03:10:06;16.33;;;10.50;;
32918;SDS011;19280;42.646;21.150;2023-07-24T03:12:33;14.90;;;10.10;;
32918;SDS011;19280;42.646;21.150;2023-07-24T03:14:59;19.15;;;11.13;;
32918;SDS011;19280;42.646;21.150;2023-07-24T03:17:25;20.13;;;11.43;;
32918;SDS011;19280;42.646;21.150;2023-07-24T03:19:51;17.67;;;11.13;;
32918;SDS011;19280;42.646;21.150;2023-07-24T03:22:17;19.08;;;11.63;;
32918;SDS011;19280;42.646;21.150;2023-07-24T03:24:43;19.88;;;12.40;;
32918;SDS011;19280;42.646;21.150;2023-07-24T03:27:09;21.55;;;12.82;;
32918;SDS011;19280;42.646;21.150;2023-07-24T03:29:35;21.50;;;13.00;;
32918;SDS011;19280;42.646;21.150;2023-07-24T03:32:02;18.70;;;13.20;;
32918;SDS011;19280;42.646;21.150;2023-07-24T03:34:28;20.15;;;12.07;;
32918;SDS011;19280;42.646;21.150;2023-07-24T03:36:54;18.77;;;11.32;;
32918;SDS011;19280;42.646;21.150;2023-07-24T03:39:20;19.88;;;11.18;;
32918;SDS011;19280;42.646;21.150;2023-07-24T03:41:46;19.45;;;11.55;;
32918;SDS011;19280;42.646;21.150;2023-07-24T03:44:12;16.27;;;11.63;;
32918;SDS011;19280;42.646;21.150;2023-07-24T03:46:38;19.00;;;11.93;;
32918;SDS011;19280;42.646;21.150;2023-07-24T03:49:04;19.13;;;11.20;;
32918;SDS011;19280;42.646;21.150;2023-07-24T03:51:30;20.52;;;12.45;;
32918;SDS011;19280;42.646;21.150;2023-07-24T03:53:58;18.05;;;11.73;;
32918;SDS011;19280;42.646;21.150;2023-07-24T03:56:24;19.08;;;12.93;;
32918;SDS011;19280;42.646;21.150;2023-07-24T03:58:50;21.92;;;12.05;;
32918;SDS011;19280;42.646;21.150;2023-07-24T04:01:16;27.10;;;12.73;;
32918;SDS011;19280;42.646;21.150;2023-07-24T04:03:42;28.65;;;14.27;;
32918;SDS011;19280;42.646;21.150;2023-07-24T04:06:08;25.45;;;14.50;;
32918;SDS011;19280;42.646;21.150;2023-07-24T04:08:34;28.83;;;15.38;;
32918;SDS011;19280;42.646;21.150;2023-07-24T04:11:00;22.67;;;15.43;;
32918;SDS011;19280;42.646;21.150;2023-07-24T04:13:26;30.90;;;17.48;;
32918;SDS011;19280;42.646;21.150;2023-07-24T04:15:52;23.40;;;14.45;;
32918;SDS011;19280;42.646;21.150;2023-07-24T04:18:19;24.60;;;14.77;;
32918;SDS011;19280;42.646;21.150;2023-07-24T04:20:45;22.85;;;13.85;;
32918;SDS011;19280;42.646;21.150;2023-07-24T04:23:11;25.83;;;12.55;;
32918;SDS011;19280;42.646;21.150;2023-07-24T04:25:37;19.70;;;12.75;;
32918;SDS011;19280;42.646;21.150;2023-07-24T04:28:03;19.63;;;11.88;;
32918;SDS011;19280;42.646;21.150;2023-07-24T04:30:29;16.75;;;10.15;;
32918;SDS011;19280;42.646;21.150;2023-07-24T04:32:55;19.27;;;10.15;;
32918;SDS011;19280;42.646;21.150;2023-07-24T04:35:21;17.77;;;10.35;;
32918;SDS011;19280;42.646;21.150;2023-07-24T04:37:47;16.92;;;11.07;;
32918;SDS011;19280;42.646;21.150;2023-07-24T04:40:13;15.57;;;10.23;;
32918;SDS011;19280;42.646;21.150;2023-07-24T04:42:39;16.38;;;11.02;;
32918;SDS011;19280;42.646;21.150;2023-07-24T04:45:05;18.27;;;11.40;;
32918;SDS011;19280;42.646;21.150;2023-07-24T04:47:31;19.42;;;10.43;;
32918;SDS011;19280;42.646;21.150;2023-07-24T04:49:57;14.77;;;10.32;;
32918;SDS011;19280;42.646;21.150;2023-07-24T04:52:23;15.82;;;10.00;;
32918;SDS011;19280;42.646;21.150;2023-07-24T04:54:49;16.85;;;9.70;;
32918;SDS011;19280;42.646;21.150;2023-07-24T04:57:15;16.23;;;9.57;;
32918;SDS011;19280;42.646;21.150;2023-07-24T04:59:41;13.60;;;9.55;;
32918;SDS011;19280;42.646;21.150;2023-07-24T05:02:07;14.65;;;9.45;;
32918;SDS011;19280;42.646;21.150;2023-07-24T05:04:33;13.52;;;9.73;;
32918;SDS011;19280;42.646;21.150;2023-07-24T05:06:59;15.90;;;11.70;;
32918;SDS011;19280;42.646;21.150;2023-07-24T05:09:25;15.85;;;9.48;;
32918;SDS011;19280;42.646;21.150;2023-07-24T05:11:51;17.48;;;9.82;;
32918;SDS011;19280;42.646;21.150;2023-07-24T05:14:17;15.23;;;9.32;;
32918;SDS011;19280;42.646;21.150;2023-07-24T05:16:43;14.85;;;9.38;;
32918;SDS011;19280;42.646;21.150;2023-07-24T05:19:09;14.75;;;10.05;;
32918;SDS011;19280;42.646;21.150;2023-07-24T05:21:35;13.85;;;9.43;;
32918;SDS011;19280;42.646;21.150;2023-07-24T05:24:01;17.83;;;10.00;;
32918;SDS011;19280;42.646;21.150;2023-07-24T05:26:28;13.68;;;9.98;;
32918;SDS011;19280;42.646;21.150;2023-07-24T05:28:54;27.95;;;10.68;;
32918;SDS011;19280;42.646;21.150;2023-07-24T05:31:20;17.50;;;9.82;;
32918;SDS011;19280;42.646;21.150;2023-07-24T05:33:46;15.15;;;10.73;;
32918;SDS011;19280;42.646;21.150;2023-07-24T05:36:12;18.65;;;10.50;;
32918;SDS011;19280;42.646;21.150;2023-07-24T05:38:38;17.50;;;10.35;;
32918;SDS011;19280;42.646;21.150;2023-07-24T05:41:04;15.88;;;10.73;;
32918;SDS011;19280;42.646;21.150;2023-07-24T05:43:30;14.18;;;10.15;;
32918;SDS011;19280;42.646;21.150;2023-07-24T05:45:57;16.30;;;10.13;;
32918;SDS011;19280;42.646;21.150;2023-07-24T05:48:24;15.98;;;10.05;;
32918;SDS011;19280;42.646;21.150;2023-07-24T05:50:50;19.13;;;10.18;;
32918;SDS011;19280;42.646;21.150;2023-07-24T05:53:16;16.00;;;10.05;;
32918;SDS011;19280;42.646;21.150;2023-07-24T05:55:42;14.15;;;9.45;;
32918;SDS011;19280;42.646;21.150;2023-07-24T05:58:09;13.63;;;9.20;;
32918;SDS011;19280;42.646;21.150;2023-07-24T06:00:35;22.88;;;10.20;;
32918;SDS011;19280;42.646;21.150;2023-07-24T06:03:01;15.00;;;10.05;;
32918;SDS011;19280;42.646;21.150;2023-07-24T06:05:27;20.27;;;11.05;;
32918;SDS011;19280;42.646;21.150;2023-07-24T06:07:54;21.20;;;10.80;;
32918;SDS011;19280;42.646;21.150;2023-07-24T06:10:20;16.27;;;9.05;;
32918;SDS011;19280;42.646;21.150;2023-07-24T06:12:46;15.68;;;9.68;;
32918;SDS011;19280;42.646;21.150;2023-07-24T06:15:12;17.58;;;9.10;;
32918;SDS011;19280;42.646;21.150;2023-07-24T06:17:38;18.63;;;9.95;;
32918;SDS011;19280;42.646;21.150;2023-07-24T06:20:05;18.40;;;10.55;;
32918;SDS011;19280;42.646;21.150;2023-07-24T06:22:31;21.88;;;10.02;;
32918;SDS011;19280;42.646;21.150;2023-07-24T06:24:57;28.17;;;10.15;;
32918;SDS011;19280;42.646;21.150;2023-07-24T06:27:23;21.27;;;10.70;;
32918;SDS011;19280;42.646;21.150;2023-07-24T06:29:49;19.55;;;9.95;;
32918;SDS011;19280;42.646;21.150;2023-07-24T06:32:15;24.73;;;10.38;;
32918;SDS011;19280;42.646;21.150;2023-07-24T06:34:41;22.05;;;9.77;;
32918;SDS011;19280;42.646;21.150;2023-07-24T06:37:07;20.15;;;10.27;;
32918;SDS011;19280;42.646;21.150;2023-07-24T06:39:33;18.75;;;10.75;;
32918;SDS011;19280;42.646;21.150;2023-07-24T06:42:00;23.55;;;10.82;;
32918;SDS011;19280;42.646;21.150;2023-07-24T06:44:26;24.42;;;11.38;;
32918;SDS011;19280;42.646;21.150;2023-07-24T06:46:52;18.27;;;10.68;;
32918;SDS011;19280;42.646;21.150;2023-07-24T06:49:18;21.08;;;11.02;;
32918;SDS011;19280;42.646;21.150;2023-07-24T06:51:44;25.52;;;11.10;;
32918;SDS011;19280;42.646;21.150;2023-07-24T06:54:10;21.45;;;10.30;;
32918;SDS011;19280;42.646;21.150;2023-07-24T06:56:36;29.35;;;10.57;;
32918;SDS011;19280;42.646;21.150;2023-07-24T06:59:02;21.95;;;9.38;;
32918;SDS011;19280;42.646;21.150;2023-07-24T07:01:28;23.60;;;10.05;;
32918;SDS011;19280;42.646;21.150;2023-07-24T07:03:54;23.33;;;10.63;;
32918;SDS011;19280;42.646;21.150;2023-07-24T07:06:20;28.25;;;9.82;;
32918;SDS011;19280;42.646;21.150;2023-07-24T07:08:46;30.38;;;11.68;;
32918;SDS011;19280;42.646;21.150;2023-07-24T07:11:12;47.08;;;15.68;;
32918;SDS011;19280;42.646;21.150;2023-07-24T07:13:38;65.57;;;20.60;;
32918;SDS011;19280;42.646;21.150;2023-07-24T07:16:04;74.30;;;21.15;;
32918;SDS011;19280;42.646;21.150;2023-07-24T07:18:30;84.53;;;21.98;;
32918;SDS011;19280;42.646;21.150;2023-07-24T07:20:56;66.28;;;19.90;;
32918;SDS011;19280;42.646;21.150;2023-07-24T07:23:25;73.22;;;20.20;;
32918;SDS011;19280;42.646;21.150;2023-07-24T07:25:52;55.28;;;18.02;;
32918;SDS011;19280;42.646;21.150;2023-07-24T07:28:18;65.10;;;15.88;;
32918;SDS011;19280;42.646;21.150;2023-07-24T07:30:44;46.60;;;15.13;;
32918;SDS011;19280;42.646;21.150;2023-07-24T07:33:10;48.90;;;15.73;;
32918;SDS011;19280;42.646;21.150;2023-07-24T07:35:36;57.85;;;15.23;;
32918;SDS011;19280;42.646;21.150;2023-07-24T07:38:02;62.80;;;18.25;;
32918;SDS011;19280;42.646;21.150;2023-07-24T07:40:29;52.83;;;15.20;;
32918;SDS011;19280;42.646;21.150;2023-07-24T07:42:56;44.10;;;15.23;;
32918;SDS011;19280;42.646;21.150;2023-07-24T07:45:22;57.50;;;15.90;;
32918;SDS011;19280;42.646;21.150;2023-07-24T07:47:48;50.78;;;17.30;;
32918;SDS011;19280;42.646;21.150;2023-07-24T07:50:15;51.05;;;15.65;;
32918;SDS011;19280;42.646;21.150;2023-07-24T07:52:41;41.97;;;13.32;;
32918;SDS011;19280;42.646;21.150;2023-07-24T07:55:07;33.25;;;12.77;;
32918;SDS011;19280;42.646;21.150;2023-07-24T07:57:34;28.63;;;11.82;;
32918;SDS011;19280;42.646;21.150;2023-07-24T08:00:01;42.17;;;12.23;;
32918;SDS011;19280;42.646;21.150;2023-07-24T08:02:27;34.15;;;12.15;;
32918;SDS011;19280;42.646;21.150;2023-07-24T08:04:53;31.20;;;11.77;;
32918;SDS011;19280;42.646;21.150;2023-07-24T08:07:19;31.45;;;10.95;;
32918;SDS011;19280;42.646;21.150;2023-07-24T08:09:46;29.58;;;9.82;;
32918;SDS011;19280;42.646;21.150;2023-07-24T08:12:12;26.83;;;9.65;;
32918;SDS011;19280;42.646;21.150;2023-07-24T08:14:38;25.55;;;9.60;;
32918;SDS011;19280;42.646;21.150;2023-07-24T08:17:04;26.55;;;10.15;;
32918;SDS011;19280;42.646;21.150;2023-07-24T08:19:30;26.45;;;9.98;;
32918;SDS011;19280;42.646;21.150;2023-07-24T08:21:56;25.67;;;9.60;;
32918;SDS011;19280;42.646;21.150;2023-07-24T08:24:34;23.55;;;8.45;;
32918;SDS011;19280;42.646;21.150;2023-07-24T08:27:00;23.15;;;8.55;;
32918;SDS011;19280;42.646;21.150;2023-07-24T08:29:30;23.63;;;8.18;;
32918;SDS011;19280;42.646;21.150;2023-07-24T08:31:56;23.38;;;8.88;;
32918;SDS011;19280;42.646;21.150;2023-07-24T08:34:22;20.73;;;8.40;;
32918;SDS011;19280;42.646;21.150;2023-07-24T08:36:48;25.77;;;8.43;;
32918;SDS011;19280;42.646;21.150;2023-07-24T08:39:14;17.60;;;8.40;;
32918;SDS011;19280;42.646;21.150;2023-07-24T08:41:40;21.92;;;8.40;;
32918;SDS011;19280;42.646;21.150;2023-07-24T08:44:09;19.85;;;7.85;;
32918;SDS011;19280;42.646;21.150;2023-07-24T08:46:36;28.35;;;9.30;;
32918;SDS011;19280;42.646;21.150;2023-07-24T08:49:03;20.63;;;8.63;;
32918;SDS011;19280;42.646;21.150;2023-07-24T08:51:29;24.17;;;9.20;;
32918;SDS011;19280;42.646;21.150;2023-07-24T08:53:56;20.92;;;9.32;;
32918;SDS011;19280;42.646;21.150;2023-07-24T08:56:22;25.17;;;8.88;;
32918;SDS011;19280;42.646;21.150;2023-07-24T08:58:49;22.38;;;9.07;;
32918;SDS011;19280;42.646;21.150;2023-07-24T09:01:15;21.58;;;8.27;;
32918;SDS011;19280;42.646;21.150;2023-07-24T09:03:41;20.23;;;8.75;;
32918;SDS011;19280;42.646;21.150;2023-07-24T09:06:07;25.10;;;9.25;;
32918;SDS011;19280;42.646;21.150;2023-07-24T09:08:37;23.98;;;9.25;;
32918;SDS011;19280;42.646;21.150;2023-07-24T09:11:04;26.03;;;8.87;;
32918;SDS011;19280;42.646;21.150;2023-07-24T09:13:30;28.63;;;9.05;;
32918;SDS011;19280;42.646;21.150;2023-07-24T09:15:57;17.23;;;8.20;;
32918;SDS011;19280;42.646;21.150;2023-07-24T09:18:24;20.50;;;7.55;;
32918;SDS011;19280;42.646;21.150;2023-07-24T09:20:50;25.83;;;7.63;;
32918;SDS011;19280;42.646;21.150;2023-07-24T09:23:25;19.92;;;7.10;;
32918;SDS011;19280;42.646;21.150;2023-07-24T09:25:51;18.17;;;7.47;;
32918;SDS011;19280;42.646;21.150;2023-07-24T09:28:18;17.50;;;7.15;;
32918;SDS011;19280;42.646;21.150;2023-07-24T09:30:54;15.90;;;7.50;;
32918;SDS011;19280;42.646;21.150;2023-07-24T09:33:23;17.95;;;7.18;;
32918;SDS011;19280;42.646;21.150;2023-07-24T09:35:59;16.08;;;7.00;;
32918;SDS011;19280;42.646;21.150;2023-07-24T09:38:25;14.70;;;7.00;;
32918;SDS011;19280;42.646;21.150;2023-07-24T09:40:52;19.10;;;7.10;;
32918;SDS011;19280;42.646;21.150;2023-07-24T09:45:45;18.60;;;6.60;;
32918;SDS011;19280;42.646;21.150;2023-07-24T09:48:11;18.42;;;7.15;;
32918;SDS011;19280;42.646;21.150;2023-07-24T09:50:39;14.85;;;6.80;;
32918;SDS011;19280;42.646;21.150;2023-07-24T09:53:06;21.08;;;7.03;;
32918;SDS011;19280;42.646;21.150;2023-07-24T09:55:38;16.58;;;7.05;;
32918;SDS011;19280;42.646;21.150;2023-07-24T09:58:09;20.13;;;7.32;;
32918;SDS011;19280;42.646;21.150;2023-07-24T10:00:35;14.38;;;6.40;;
32918;SDS011;19280;42.646;21.150;2023-07-24T10:03:02;14.95;;;6.68;;
32918;SDS011;19280;42.646;21.150;2023-07-24T10:05:28;17.65;;;7.45;;
32918;SDS011;19280;42.646;21.150;2023-07-24T10:07:55;16.58;;;7.13;;
32918;SDS011;19280;42.646;21.150;2023-07-24T10:10:21;14.75;;;7.10;;
32918;SDS011;19280;42.646;21.150;2023-07-24T10:12:47;20.95;;;6.63;;
32918;SDS011;19280;42.646;21.150;2023-07-24T10:15:14;15.82;;;7.43;;
32918;SDS011;19280;42.646;21.150;2023-07-24T10:17:40;17.88;;;7.22;;
32918;SDS011;19280;42.646;21.150;2023-07-24T10:20:07;16.98;;;7.28;;
32918;SDS011;19280;42.646;21.150;2023-07-24T10:22:34;13.35;;;7.25;;
32918;SDS011;19280;42.646;21.150;2023-07-24T10:25:00;15.45;;;7.60;;
32918;SDS011;19280;42.646;21.150;2023-07-24T10:27:26;15.48;;;7.25;;
32918;SDS011;19280;42.646;21.150;2023-07-24T10:30:03;16.52;;;7.72;;
32918;SDS011;19280;42.646;21.150;2023-07-24T10:32:32;16.10;;;7.35;;
32918;SDS011;19280;42.646;21.150;2023-07-24T10:35:08;18.15;;;7.32;;
32918;SDS011;19280;42.646;21.150;2023-07-24T10:37:37;16.55;;;7.72;;
32918;SDS011;19280;42.646;21.150;2023-07-24T10:40:04;23.08;;;8.20;;
32918;SDS011;19280;42.646;21.150;2023-07-24T10:42:30;16.20;;;8.25;;
32918;SDS011;19280;42.646;21.150;2023-07-24T10:45:05;16.75;;;8.43;;
32918;SDS011;19280;42.646;21.150;2023-07-24T10:47:32;18.25;;;7.50;;
32918;SDS011;19280;42.646;21.150;2023-07-24T10:49:58;16.73;;;7.80;;
32918;SDS011;19280;42.646;21.150;2023-07-24T10:52:32;12.73;;;7.50;;
32918;SDS011;19280;42.646;21.150;2023-07-24T10:55:05;19.55;;;7.75;;
32918;SDS011;19280;42.646;21.150;2023-07-24T10:57:31;15.10;;;7.88;;
32918;SDS011;19280;42.646;21.150;2023-07-24T10:59:57;15.57;;;7.45;;
32918;SDS011;19280;42.646;21.150;2023-07-24T11:02:24;13.27;;;7.43;;
32918;SDS011;19280;42.646;21.150;2023-07-24T11:04:50;11.25;;;7.95;;
32918;SDS011;19280;42.646;21.150;2023-07-24T11:07:17;13.57;;;7.07;;
32918;SDS011;19280;42.646;21.150;2023-07-24T11:09:43;11.75;;;7.07;;
32918;SDS011;19280;42.646;21.150;2023-07-24T11:12:13;15.60;;;8.32;;
32918;SDS011;19280;42.646;21.150;2023-07-24T11:14:52;18.92;;;8.77;;
32918;SDS011;19280;42.646;21.150;2023-07-24T11:17:19;18.55;;;9.02;;
32918;SDS011;19280;42.646;21.150;2023-07-24T11:19:45;16.40;;;8.18;;
32918;SDS011;19280;42.646;21.150;2023-07-24T11:22:11;13.57;;;7.88;;
32918;SDS011;19280;42.646;21.150;2023-07-24T11:24:45;13.15;;;7.30;;
32918;SDS011;19280;42.646;21.150;2023-07-24T11:27:15;15.98;;;8.23;;
32918;SDS011;19280;42.646;21.150;2023-07-24T11:29:51;13.95;;;8.15;;
32918;SDS011;19280;42.646;21.150;2023-07-24T11:32:20;14.45;;;8.00;;
32918;SDS011;19280;42.646;21.150;2023-07-24T11:34:49;14.65;;;8.15;;
32918;SDS011;19280;42.646;21.150;2023-07-24T11:37:16;13.02;;;8.35;;
32918;SDS011;19280;42.646;21.150;2023-07-24T11:39:58;14.18;;;8.48;;
32918;SDS011;19280;42.646;21.150;2023-07-24T11:42:29;15.95;;;8.43;;
32918;SDS011;19280;42.646;21.150;2023-07-24T11:44:55;15.30;;;8.68;;
32918;SDS011;19280;42.646;21.150;2023-07-24T11:47:21;14.63;;;8.10;;
32918;SDS011;19280;42.646;21.150;2023-07-24T11:49:59;18.50;;;9.20;;
32918;SDS011;19280;42.646;21.150;2023-07-24T11:52:25;13.27;;;8.43;;
32918;SDS011;19280;42.646;21.150;2023-07-24T11:54:58;15.60;;;8.90;;
32918;SDS011;19280;42.646;21.150;2023-07-24T11:57:28;14.50;;;9.00;;
32918;SDS011;19280;42.646;21.150;2023-07-24T11:59:55;17.42;;;8.90;;
32918;SDS011;19280;42.646;21.150;2023-07-24T12:02:24;13.63;;;8.05;;
32918;SDS011;19280;42.646;21.150;2023-07-24T12:04:58;16.98;;;8.48;;
32918;SDS011;19280;42.646;21.150;2023-07-24T12:07:31;17.15;;;8.63;;
32918;SDS011;19280;42.646;21.150;2023-07-24T12:09:57;18.30;;;8.40;;
32918;SDS011;19280;42.646;21.150;2023-07-24T12:12:23;17.55;;;8.80;;
32918;SDS011;19280;42.646;21.150;2023-07-24T12:14:49;15.02;;;7.85;;
32918;SDS011;19280;42.646;21.150;2023-07-24T12:17:18;19.23;;;9.68;;
32918;SDS011;19280;42.646;21.150;2023-07-24T12:19:45;19.63;;;9.70;;
32918;SDS011;19280;42.646;21.150;2023-07-24T12:22:12;18.88;;;9.20;;
32918;SDS011;19280;42.646;21.150;2023-07-24T12:24:38;17.17;;;9.43;;
32918;SDS011;19280;42.646;21.150;2023-07-24T12:27:04;16.90;;;9.02;;
32918;SDS011;19280;42.646;21.150;2023-07-24T12:29:30;16.65;;;9.13;;
32918;SDS011;19280;42.646;21.150;2023-07-24T12:31:56;19.00;;;8.73;;
32918;SDS011;19280;42.646;21.150;2023-07-24T12:34:22;16.80;;;9.13;;
32918;SDS011;19280;42.646;21.150;2023-07-24T12:36:48;16.85;;;9.30;;
32918;SDS011;19280;42.646;21.150;2023-07-24T12:39:16;17.58;;;9.70;;
32918;SDS011;19280;42.646;21.150;2023-07-24T12:41:44;17.63;;;9.23;;
32918;SDS011;19280;42.646;21.150;2023-07-24T12:44:10;14.35;;;8.57;;
32918;SDS011;19280;42.646;21.150;2023-07-24T12:46:36;14.25;;;8.25;;
32918;SDS011;19280;42.646;21.150;2023-07-24T12:49:02;15.32;;;8.00;;
32918;SDS011;19280;42.646;21.150;2023-07-24T12:51:28;15.10;;;8.10;;
32918;SDS011;19280;42.646;21.150;2023-07-24T12:53:54;17.17;;;8.68;;
32918;SDS011;19280;42.646;21.150;2023-07-24T12:56:20;18.25;;;8.13;;
32918;SDS011;19280;42.646;21.150;2023-07-24T12:58:46;16.13;;;7.97;;
32918;SDS011;19280;42.646;21.150;2023-07-24T13:01:12;13.70;;;7.90;;
32918;SDS011;19280;42.646;21.150;2023-07-24T13:03:38;17.98;;;8.10;;
32918;SDS011;19280;42.646;21.150;2023-07-24T13:06:04;14.52;;;7.72;;
32918;SDS011;19280;42.646;21.150;2023-07-24T13:08:30;16.85;;;8.30;;
32918;SDS011;19280;42.646;21.150;2023-07-24T13:10:56;17.95;;;6.85;;
32918;SDS011;19280;42.646;21.150;2023-07-24T13:13:22;18.98;;;8.43;;
32918;SDS011;19280;42.646;21.150;2023-07-24T13:15:48;17.80;;;7.25;;
32918;SDS011;19280;42.646;21.150;2023-07-24T13:18:16;15.30;;;8.02;;
32918;SDS011;19280;42.646;21.150;2023-07-24T13:20:44;16.23;;;7.97;;
32918;SDS011;19280;42.646;21.150;2023-07-24T13:23:11;14.15;;;7.88;;
32918;SDS011;19280;42.646;21.150;2023-07-24T13:25:37;16.90;;;7.40;;
32918;SDS011;19280;42.646;21.150;2023-07-24T13:28:03;18.63;;;8.20;;
32918;SDS011;19280;42.646;21.150;2023-07-24T13:30:29;18.58;;;8.57;;
32918;SDS011;19280;42.646;21.150;2023-07-24T13:32:55;16.45;;;7.57;;
32918;SDS011;19280;42.646;21.150;2023-07-24T13:35:21;18.60;;;7.55;;
32918;SDS011;19280;42.646;21.150;2023-07-24T13:37:47;12.13;;;7.57;;
32918;SDS011;19280;42.646;21.150;2023-07-24T13:40:13;14.90;;;7.95;;
32918;SDS011;19280;42.646;21.150;2023-07-24T13:42:39;15.07;;;7.25;;
32918;SDS011;19280;42.646;21.150;2023-07-24T13:45:06;15.48;;;7.72;;
32918;SDS011;19280;42.646;21.150;2023-07-24T13:47:32;15.60;;;7.15;;
32918;SDS011;19280;42.646;21.150;2023-07-24T13:49:58;11.60;;;7.15;;
32918;SDS011;19280;42.646;21.150;2023-07-24T13:52:28;11.75;;;6.97;;
32918;SDS011;19280;42.646;21.150;2023-07-24T13:54:54;12.85;;;7.65;;
32918;SDS011;19280;42.646;21.150;2023-07-24T13:57:20;14.88;;;7.43;;
32918;SDS011;19280;42.646;21.150;2023-07-24T13:59:46;18.70;;;7.57;;
32918;SDS011;19280;42.646;21.150;2023-07-24T14:02:12;21.67;;;8.02;;
32918;SDS011;19280;42.646;21.150;2023-07-24T14:04:39;13.85;;;7.65;;
32918;SDS011;19280;42.646;21.150;2023-07-24T14:07:05;14.13;;;8.02;;
32918;SDS011;19280;42.646;21.150;2023-07-24T14:09:31;12.52;;;7.30;;
32918;SDS011;19280;42.646;21.150;2023-07-24T14:11:59;21.90;;;7.85;;
32918;SDS011;19280;42.646;21.150;2023-07-24T14:14:25;19.98;;;7.95;;
32918;SDS011;19280;42.646;21.150;2023-07-24T14:16:51;16.42;;;8.40;;
32918;SDS011;19280;42.646;21.150;2023-07-24T14:19:17;11.98;;;7.45;;
32918;SDS011;19280;42.646;21.150;2023-07-24T14:21:44;15.90;;;7.55;;
32918;SDS011;19280;42.646;21.150;2023-07-24T14:24:10;18.02;;;7.57;;